createdAt,value
2022-11-21T00:00:16.050Z,31.13
2022-11-21T00:01:29.119Z,31.58
2022-11-21T00:02:34.819Z,40.20
2022-11-21T00:03:39.829Z,24.20
2022-11-21T00:04:44.245Z,30.13
2022-11-21T00:05:50.425Z,35.83
2022-11-21T00:06:53.941Z,34.40
2022-11-21T00:07:58.651Z,33.95
2022-11-21T00:09:02.290Z,28.92
2022-11-21T00:10:07.534Z,33.00
2022-11-21T00:11:11.578Z,30.80
2022-11-21T00:12:21.805Z,29.42
2022-11-21T00:13:25.824Z,32.13
2022-11-21T00:14:29.780Z,27.52
2022-11-21T00:15:36.335Z,38.13
2022-11-21T00:16:39.861Z,29.25
2022-11-21T00:17:43.557Z,28.10
2022-11-21T00:18:47.065Z,25.50
2022-11-21T00:19:53.866Z,32.35
2022-11-21T00:20:58.020Z,30.42
2022-11-21T00:22:06.189Z,24.45
2022-11-21T00:23:12.768Z,39.97
2022-11-21T00:24:18.884Z,46.95
2022-11-21T00:25:22.959Z,33.47
2022-11-21T00:26:26.485Z,30.45
2022-11-21T00:27:30.320Z,34.65
2022-11-21T00:28:34.892Z,39.85
2022-11-21T00:29:38.345Z,42.65
2022-11-21T00:30:41.869Z,33.22
2022-11-21T00:31:45.252Z,29.05
2022-11-21T00:32:49.150Z,30.15
2022-11-21T00:33:53.564Z,40.05
2022-11-21T00:34:57.638Z,29.50
2022-11-21T00:36:11.813Z,26.88
2022-11-21T00:37:15.473Z,42.55
2022-11-21T00:38:20.946Z,27.33
2022-11-21T00:39:26.996Z,42.50
2022-11-21T00:40:33.398Z,26.70
2022-11-21T00:41:37.434Z,35.38
2022-11-21T00:42:43.451Z,46.05
2022-11-21T00:43:47.188Z,41.75
2022-11-21T00:44:51.567Z,38.38
2022-11-21T00:45:55.227Z,33.70
2022-11-21T00:46:59.903Z,32.80
2022-11-21T00:48:04.166Z,41.30
2022-11-21T00:49:10.110Z,33.33
2022-11-21T00:50:14.356Z,29.65
2022-11-21T00:51:18.114Z,47.25
2022-11-21T00:52:21.602Z,37.50
2022-11-21T00:53:25.133Z,29.80
2022-11-21T00:54:29.912Z,42.28
2022-11-21T00:55:33.807Z,28.77
2022-11-21T00:56:37.500Z,26.58
2022-11-21T00:57:41.095Z,23.40
2022-11-21T00:58:45.176Z,32.55
2022-11-21T00:59:49.071Z,32.83
2022-11-21T01:00:53.118Z,30.70
2022-11-21T01:01:57.267Z,32.65
2022-11-21T01:03:03.420Z,23.92
2022-11-21T01:04:08.562Z,32.05
2022-11-21T01:05:12.345Z,25.75
2022-11-21T01:06:16.889Z,19.15
2022-11-21T01:07:20.456Z,40.25
2022-11-21T01:08:24.068Z,27.13
2022-11-21T01:09:28.875Z,33.67
2022-11-21T01:10:33.811Z,24.33
2022-11-21T01:11:37.532Z,26.40
2022-11-21T01:12:41.214Z,25.50
2022-11-21T01:13:45.660Z,34.65
2022-11-21T01:14:50.167Z,28.00
2022-11-21T01:15:53.799Z,27.48
2022-11-21T01:16:57.306Z,31.90
2022-11-21T01:18:00.740Z,43.90
2022-11-21T01:19:05.743Z,36.28
2022-11-21T01:20:10.322Z,38.10
2022-11-21T01:21:21.565Z,31.13
2022-11-21T01:22:25.335Z,35.08
2022-11-21T01:23:29.748Z,26.92
2022-11-21T01:24:33.395Z,30.73
2022-11-21T01:25:37.755Z,28.52
2022-11-21T01:26:41.653Z,37.65
2022-11-21T01:27:45.234Z,35.22
2022-11-21T01:28:49.606Z,35.28
2022-11-21T01:29:53.193Z,31.23
2022-11-21T01:31:03.631Z,33.33
2022-11-21T01:32:08.161Z,22.65
2022-11-21T01:33:12.059Z,22.85
2022-11-21T01:34:16.351Z,36.35
2022-11-21T01:35:20.307Z,45.00
2022-11-21T01:36:28.419Z,38.28
2022-11-21T01:37:32.499Z,29.85
2022-11-21T01:38:36.413Z,25.08
2022-11-21T01:39:39.995Z,33.25
2022-11-21T01:40:43.582Z,36.42
2022-11-21T01:41:47.054Z,34.22
2022-11-21T01:43:02.756Z,39.10
2022-11-21T01:44:26.190Z,37.13
2022-11-21T01:46:07.646Z,42.47
2022-11-21T01:47:11.214Z,32.15
2022-11-21T01:48:15.280Z,27.85
2022-11-21T01:49:32.713Z,32.80
2022-11-21T01:50:36.503Z,31.45
2022-11-21T01:52:13.008Z,24.33
2022-11-21T01:53:17.440Z,33.40
2022-11-21T01:54:54.554Z,23.35
2022-11-21T01:55:58.977Z,28.67
2022-11-21T01:57:12.670Z,26.80
2022-11-21T01:58:17.489Z,26.35
2022-11-21T01:59:33.266Z,28.08
2022-11-21T02:00:41.029Z,31.17
2022-11-21T02:01:48.919Z,32.20
2022-11-21T02:03:03.061Z,35.30
2022-11-21T02:04:09.517Z,24.98
2022-11-21T02:05:22.570Z,33.53
2022-11-21T02:06:26.270Z,41.35
2022-11-21T02:07:35.997Z,26.02
2022-11-21T02:08:43.086Z,37.00
2022-11-21T02:09:54.525Z,27.60
2022-11-21T02:11:32.806Z,27.00
2022-11-21T02:12:43.807Z,23.40
2022-11-21T02:13:47.344Z,30.67
2022-11-21T02:14:53.175Z,23.17
2022-11-21T02:15:58.321Z,25.20
2022-11-21T02:17:09.789Z,24.90
2022-11-21T02:18:14.380Z,25.08
2022-11-21T02:19:54.030Z,43.72
2022-11-21T02:21:40.907Z,26.73
2022-11-21T02:22:47.437Z,23.48
2022-11-21T02:24:00.187Z,31.10
2022-11-21T02:25:18.814Z,28.17
2022-11-21T02:26:22.575Z,30.55
2022-11-21T02:27:27.016Z,30.83
2022-11-21T02:28:31.811Z,30.10
2022-11-21T02:29:35.493Z,29.88
2022-11-21T02:30:43.165Z,26.88
2022-11-21T02:31:46.672Z,27.73
2022-11-21T02:32:50.870Z,29.90
2022-11-21T02:33:54.718Z,28.73
2022-11-21T02:34:58.283Z,36.10
2022-11-21T02:36:02.964Z,33.05
2022-11-21T02:37:10.750Z,32.15
2022-11-21T02:38:23.016Z,42.47
2022-11-21T02:39:37.205Z,28.35
2022-11-21T02:41:02.137Z,29.08
2022-11-21T02:42:56.371Z,31.98
2022-11-21T02:44:13.119Z,35.28
2022-11-21T02:45:41.648Z,41.03
2022-11-21T02:46:51.584Z,30.13
2022-11-21T02:48:02.283Z,32.78
2022-11-21T02:49:11.239Z,27.77
2022-11-21T02:50:24.053Z,26.05
2022-11-21T02:51:28.068Z,22.60
2022-11-21T02:52:32.111Z,34.03
2022-11-21T02:53:36.557Z,38.20
2022-11-21T02:54:40.450Z,23.52
2022-11-21T02:55:45.693Z,24.58
2022-11-21T02:56:49.563Z,35.58
2022-11-21T02:57:54.198Z,35.67
2022-11-21T02:58:58.000Z,35.17
2022-11-21T03:00:01.651Z,26.65
2022-11-21T03:01:13.248Z,36.13
2022-11-21T03:02:17.538Z,26.83
2022-11-21T03:03:22.286Z,25.77
2022-11-21T03:04:27.459Z,34.00
2022-11-21T03:05:31.690Z,44.60
2022-11-21T03:06:35.958Z,31.13
2022-11-21T03:07:39.909Z,33.45
2022-11-21T03:08:43.750Z,29.88
2022-11-21T03:09:47.172Z,40.00
2022-11-21T03:10:51.088Z,34.53
2022-11-21T03:11:54.488Z,26.98
2022-11-21T03:13:03.903Z,25.83
2022-11-21T03:14:08.465Z,34.05
2022-11-21T03:15:15.122Z,37.13
2022-11-21T03:16:18.664Z,28.67
2022-11-21T03:17:22.625Z,30.33
2022-11-21T03:18:26.257Z,32.35
2022-11-21T03:19:31.033Z,38.15
2022-11-21T03:20:35.334Z,31.48
2022-11-21T03:21:39.130Z,35.47
2022-11-21T03:22:44.974Z,29.30
2022-11-21T03:23:48.548Z,29.33
2022-11-21T03:24:52.507Z,22.52
2022-11-21T03:25:56.118Z,31.13
2022-11-21T03:26:59.959Z,34.90
2022-11-21T03:28:03.524Z,23.17
2022-11-21T03:29:07.691Z,33.95
2022-11-21T03:30:12.171Z,27.85
2022-11-21T03:31:15.803Z,29.88
2022-11-21T03:32:22.898Z,45.33
2022-11-21T03:33:27.074Z,36.60
2022-11-21T03:34:31.925Z,26.65
2022-11-21T03:35:35.822Z,37.40
2022-11-21T03:36:39.724Z,32.13
2022-11-21T03:37:43.194Z,39.95
2022-11-21T03:38:46.791Z,30.33
2022-11-21T03:39:50.623Z,24.73
2022-11-21T03:40:54.500Z,26.73
2022-11-21T03:41:58.602Z,25.08
2022-11-21T03:43:06.515Z,29.90
2022-11-21T03:44:12.596Z,38.60
2022-11-21T03:45:16.234Z,33.72
2022-11-21T03:46:19.903Z,29.75
2022-11-21T03:47:25.846Z,26.52
2022-11-21T03:48:29.839Z,49.15
2022-11-21T03:49:33.358Z,31.80
2022-11-21T03:50:37.140Z,34.42
2022-11-21T03:51:41.049Z,23.10
2022-11-21T03:52:44.755Z,25.67
2022-11-21T03:53:48.980Z,31.42
2022-11-21T03:54:53.049Z,22.67
2022-11-21T03:55:56.842Z,41.63
2022-11-21T03:57:00.507Z,33.20
2022-11-21T03:58:05.405Z,36.65
2022-11-21T03:59:10.718Z,31.95
2022-11-21T04:00:15.804Z,28.13
2022-11-21T04:01:20.589Z,57.22
2022-11-21T04:02:24.211Z,38.90
2022-11-21T04:03:27.903Z,42.75
2022-11-21T04:04:31.915Z,32.47
2022-11-21T04:05:35.787Z,27.90
2022-11-21T04:06:39.524Z,34.17
2022-11-21T04:07:43.069Z,33.25
2022-11-21T04:08:47.078Z,34.20
2022-11-21T04:09:50.597Z,28.20
2022-11-21T04:10:55.121Z,25.60
2022-11-21T04:11:58.619Z,30.38
2022-11-21T04:13:02.024Z,27.67
2022-11-21T04:14:07.235Z,31.13
2022-11-21T04:15:13.935Z,27.85
2022-11-21T04:16:17.852Z,40.75
2022-11-21T04:17:21.454Z,43.90
2022-11-21T04:18:25.275Z,38.05
2022-11-21T04:19:28.967Z,39.35
2022-11-21T04:20:32.696Z,33.60
2022-11-21T04:21:36.463Z,35.85
2022-11-21T04:22:39.973Z,42.47
2022-11-21T04:23:43.672Z,33.95
2022-11-21T04:24:47.459Z,39.20
2022-11-21T04:25:50.890Z,34.25
2022-11-21T04:26:55.784Z,44.78
2022-11-21T04:28:04.928Z,34.03
2022-11-21T04:29:08.378Z,39.33
2022-11-21T04:30:12.820Z,33.47
2022-11-21T04:31:16.895Z,37.28
2022-11-21T04:32:20.348Z,29.77
2022-11-21T04:33:24.067Z,31.25
2022-11-21T04:34:27.786Z,32.67
2022-11-21T04:35:31.646Z,36.78
2022-11-21T04:36:35.249Z,41.80
2022-11-21T04:37:40.733Z,40.20
2022-11-21T04:38:44.568Z,42.22
2022-11-21T04:39:48.128Z,28.80
2022-11-21T04:40:51.751Z,30.20
2022-11-21T04:41:55.333Z,31.90
2022-11-21T04:42:59.056Z,30.17
2022-11-21T04:44:02.819Z,32.83
2022-11-21T04:45:08.830Z,31.48
2022-11-21T04:46:12.578Z,32.13
2022-11-21T04:47:16.051Z,45.25
2022-11-21T04:48:19.952Z,31.92
2022-11-21T04:49:24.065Z,40.70
2022-11-21T04:50:27.958Z,32.15
2022-11-21T04:51:31.714Z,36.50
2022-11-21T04:52:36.054Z,35.58
2022-11-21T04:53:42.895Z,45.88
2022-11-21T04:54:48.285Z,33.42
2022-11-21T04:55:52.070Z,39.75
2022-11-21T04:56:56.152Z,33.88
2022-11-21T04:58:00.954Z,32.75
2022-11-21T04:59:05.133Z,32.97
2022-11-21T05:00:10.159Z,28.27
2022-11-21T05:01:13.731Z,39.67
2022-11-21T05:02:17.509Z,37.95
2022-11-21T05:03:21.189Z,37.55
2022-11-21T05:04:24.959Z,35.70
2022-11-21T05:05:28.785Z,42.25
2022-11-21T05:06:32.387Z,29.35
2022-11-21T05:07:36.502Z,37.20
2022-11-21T05:08:40.502Z,38.35
2022-11-21T05:09:44.738Z,35.50
2022-11-21T05:11:09.697Z,44.85
2022-11-21T05:12:32.218Z,43.20
2022-11-21T05:13:35.760Z,46.65
2022-11-21T05:14:39.559Z,40.33
2022-11-21T05:15:43.349Z,33.28
2022-11-21T05:16:47.204Z,32.63
2022-11-21T05:17:50.675Z,30.40
2022-11-21T05:18:54.759Z,27.23
2022-11-21T05:19:58.268Z,38.22
2022-11-21T05:21:04.881Z,34.70
2022-11-21T05:22:10.157Z,46.83
2022-11-21T05:23:14.303Z,30.75
2022-11-21T05:24:18.007Z,35.05
2022-11-21T05:25:21.535Z,39.20
2022-11-21T05:26:25.623Z,25.65
2022-11-21T05:27:29.307Z,34.35
2022-11-21T05:28:32.725Z,29.50
2022-11-21T05:29:36.624Z,35.40
2022-11-21T05:30:40.735Z,31.25
2022-11-21T05:31:44.369Z,37.55
2022-11-21T05:32:48.215Z,31.30
2022-11-21T05:33:51.835Z,30.38
2022-11-21T05:34:56.776Z,31.30
2022-11-21T05:36:00.377Z,42.28
2022-11-21T05:37:04.486Z,41.53
2022-11-21T05:38:07.999Z,37.15
2022-11-21T05:39:11.938Z,33.28
2022-11-21T05:40:16.007Z,28.15
2022-11-21T05:41:19.716Z,36.53
2022-11-21T05:42:43.685Z,34.25
2022-11-21T05:43:47.362Z,39.00
2022-11-21T05:44:51.195Z,37.05
2022-11-21T05:45:55.997Z,32.90
2022-11-21T05:46:59.713Z,36.60
2022-11-21T05:48:07.937Z,33.47
2022-11-21T05:49:12.402Z,41.30
2022-11-21T05:50:16.521Z,28.80
2022-11-21T05:51:21.625Z,30.38
2022-11-21T05:52:25.365Z,36.83
2022-11-21T05:53:28.818Z,50.47
2022-11-21T05:54:32.436Z,36.13
2022-11-21T05:55:36.191Z,33.80
2022-11-21T05:56:40.017Z,30.80
2022-11-21T05:57:43.872Z,37.08
2022-11-21T05:58:47.699Z,39.05
2022-11-21T05:59:51.575Z,35.67
2022-11-21T06:01:00.178Z,37.78
2022-11-21T06:02:23.544Z,38.77
2022-11-21T06:03:31.393Z,36.72
2022-11-21T06:04:35.547Z,36.28
2022-11-21T06:05:39.194Z,39.53
2022-11-21T06:06:42.722Z,27.08
2022-11-21T06:07:46.391Z,35.15
2022-11-21T06:08:49.832Z,31.23
2022-11-21T06:09:53.324Z,36.33
2022-11-21T06:10:57.119Z,39.67
2022-11-21T06:12:00.485Z,33.50
2022-11-21T06:13:04.941Z,43.42
2022-11-21T06:14:09.233Z,34.35
2022-11-21T06:15:12.852Z,39.38
2022-11-21T06:16:19.957Z,35.80
2022-11-21T06:17:23.436Z,38.25
2022-11-21T06:18:28.877Z,30.55
2022-11-21T06:19:33.696Z,27.77
2022-11-21T06:20:37.272Z,40.25
2022-11-21T06:21:41.524Z,34.97
2022-11-21T06:22:45.203Z,35.78
2022-11-21T06:23:53.831Z,26.17
2022-11-21T06:24:57.586Z,34.70
2022-11-21T06:26:06.885Z,51.15
2022-11-21T06:27:10.694Z,23.43
2022-11-21T06:28:14.516Z,39.70
2022-11-21T06:29:18.328Z,33.80
2022-11-21T06:30:22.524Z,30.85
2022-11-21T06:31:28.118Z,28.30
2022-11-21T06:32:38.322Z,42.10
2022-11-21T06:33:43.950Z,43.72
2022-11-21T06:34:47.905Z,44.90
2022-11-21T06:35:51.277Z,35.20
2022-11-21T06:36:54.876Z,25.73
2022-11-21T06:37:58.943Z,27.63
2022-11-21T06:39:06.411Z,45.25
2022-11-21T06:40:13.560Z,30.10
2022-11-21T06:41:24.344Z,29.88
2022-11-21T06:42:27.968Z,29.02
2022-11-21T06:43:31.614Z,37.22
2022-11-21T06:44:35.495Z,21.48
2022-11-21T06:45:39.425Z,37.22
2022-11-21T06:46:48.253Z,33.58
2022-11-21T06:47:55.028Z,31.52
2022-11-21T06:48:58.920Z,29.13
2022-11-21T06:50:02.611Z,41.67
2022-11-21T06:51:18.446Z,35.72
2022-11-21T06:52:22.477Z,31.83
2022-11-21T06:53:25.875Z,31.20
2022-11-21T06:54:30.366Z,30.67
2022-11-21T06:55:34.240Z,28.55
2022-11-21T06:56:37.953Z,28.60
2022-11-21T06:57:41.988Z,43.53
2022-11-21T06:58:46.054Z,31.60
2022-11-21T06:59:49.922Z,26.25
2022-11-21T07:00:57.164Z,27.67
2022-11-21T07:02:02.696Z,33.63
2022-11-21T07:03:10.963Z,28.90
2022-11-21T07:04:15.453Z,51.00
2022-11-21T07:05:19.292Z,29.85
2022-11-21T07:06:24.689Z,28.15
2022-11-21T07:07:28.558Z,36.53
2022-11-21T07:08:37.548Z,36.15
2022-11-21T07:09:41.030Z,39.63
2022-11-21T07:11:03.300Z,30.00
2022-11-21T07:12:30.798Z,30.92
2022-11-21T07:13:35.215Z,27.13
2022-11-21T07:14:38.848Z,27.50
2022-11-21T07:15:43.870Z,22.58
2022-11-21T07:16:47.842Z,26.83
2022-11-21T07:17:51.501Z,31.15
2022-11-21T07:18:58.730Z,30.15
2022-11-21T07:20:02.395Z,28.23
2022-11-21T07:21:08.563Z,28.95
2022-11-21T07:22:21.610Z,24.58
2022-11-21T07:23:27.600Z,28.45
2022-11-21T07:24:31.297Z,40.47
2022-11-21T07:25:36.761Z,31.58
2022-11-21T07:26:43.802Z,28.38
2022-11-21T07:27:47.808Z,26.58
2022-11-21T07:28:51.559Z,27.55
2022-11-21T07:29:57.596Z,27.17
2022-11-21T07:31:08.462Z,22.15
2022-11-21T07:32:18.877Z,21.38
2022-11-21T07:33:24.463Z,23.33
2022-11-21T07:34:28.046Z,35.25
2022-11-21T07:35:33.014Z,30.90
2022-11-21T07:36:36.972Z,37.45
2022-11-21T07:37:43.203Z,37.75
2022-11-21T07:38:50.599Z,29.98
2022-11-21T07:39:54.335Z,40.97
2022-11-21T07:40:58.832Z,34.85
2022-11-21T07:42:02.757Z,42.42
2022-11-21T07:43:10.805Z,41.67
2022-11-21T07:44:15.075Z,28.52
2022-11-21T07:45:20.288Z,24.25
2022-11-21T07:46:34.336Z,33.78
2022-11-21T07:47:38.124Z,31.50
2022-11-21T07:48:50.922Z,26.15
2022-11-21T07:49:59.540Z,24.85
2022-11-21T07:51:06.290Z,20.75
2022-11-21T07:52:10.787Z,40.00
2022-11-21T07:53:14.402Z,35.00
2022-11-21T07:54:21.370Z,24.58
2022-11-21T07:55:25.830Z,43.17
2022-11-21T07:56:29.471Z,28.92
2022-11-21T07:57:37.092Z,27.02
2022-11-21T07:58:42.047Z,31.80
2022-11-21T07:59:45.850Z,38.05
2022-11-21T08:00:49.650Z,24.25
2022-11-21T08:01:53.501Z,25.48
2022-11-21T08:02:59.065Z,27.35
2022-11-21T08:04:02.617Z,27.42
2022-11-21T08:05:09.287Z,34.42
2022-11-21T08:06:13.763Z,27.73
2022-11-21T08:07:20.246Z,27.00
2022-11-21T08:08:23.707Z,33.00
2022-11-21T08:09:30.594Z,21.67
2022-11-21T08:10:38.600Z,26.67
2022-11-21T08:11:42.644Z,30.98
2022-11-21T08:12:46.718Z,31.58
2022-11-21T08:13:50.529Z,28.63
2022-11-21T08:15:05.048Z,19.67
2022-11-21T08:16:09.223Z,26.23
2022-11-21T08:17:14.549Z,44.63
2022-11-21T08:18:24.519Z,30.58
2022-11-21T08:19:28.125Z,21.13
2022-11-21T08:20:31.707Z,25.45
2022-11-21T08:21:35.374Z,20.13
2022-11-21T08:22:42.979Z,24.23
2022-11-21T08:23:47.397Z,29.83
2022-11-21T08:24:56.965Z,19.85
2022-11-21T08:26:00.762Z,19.85
2022-11-21T08:27:04.327Z,26.38
2022-11-21T08:28:11.198Z,17.05
2022-11-21T08:29:18.269Z,18.48
2022-11-21T08:30:22.341Z,22.75
2022-11-21T08:31:25.929Z,24.30
2022-11-21T08:32:32.228Z,31.50
2022-11-21T08:33:37.314Z,20.15
2022-11-21T08:34:41.024Z,26.48
2022-11-21T08:35:45.141Z,27.95
2022-11-21T08:36:49.023Z,29.75
2022-11-21T08:38:00.899Z,21.17
2022-11-21T08:39:05.783Z,30.25
2022-11-21T08:40:10.238Z,22.20
2022-11-21T08:41:46.900Z,29.27
2022-11-21T08:43:08.773Z,26.60
2022-11-21T08:44:16.525Z,24.27
2022-11-21T08:45:19.942Z,30.05
2022-11-21T08:46:29.807Z,22.48
2022-11-21T08:47:34.333Z,22.90
2022-11-21T08:48:37.936Z,25.25
2022-11-21T08:49:41.912Z,19.75
2022-11-21T08:50:45.464Z,35.22
2022-11-21T08:51:49.744Z,28.95
2022-11-21T08:52:53.491Z,28.17
2022-11-21T08:54:00.207Z,21.13
2022-11-21T08:55:14.870Z,25.02
2022-11-21T08:56:21.900Z,29.35
2022-11-21T08:57:25.930Z,27.20
2022-11-21T08:58:29.583Z,24.73
2022-11-21T08:59:33.597Z,20.13
2022-11-21T09:00:38.588Z,24.23
2022-11-21T09:01:42.547Z,23.90
2022-11-21T09:02:46.297Z,21.38
2022-11-21T09:03:50.604Z,16.75
2022-11-21T09:04:54.876Z,21.33
2022-11-21T09:06:14.575Z,18.13
2022-11-21T09:07:18.214Z,23.85
2022-11-21T09:08:22.993Z,24.23
2022-11-21T09:09:29.731Z,21.60
2022-11-21T09:10:37.256Z,13.18
2022-11-21T09:11:41.200Z,24.48
2022-11-21T09:12:46.373Z,21.20
2022-11-21T09:14:10.793Z,25.45
2022-11-21T09:15:33.480Z,15.13
2022-11-21T09:17:02.057Z,16.90
2022-11-21T09:18:11.409Z,24.85
2022-11-21T09:19:15.437Z,24.67
2022-11-21T09:20:19.243Z,18.67
2022-11-21T09:21:23.539Z,15.10
2022-11-21T09:22:27.453Z,20.40
2022-11-21T09:23:31.158Z,20.25
2022-11-21T09:24:36.012Z,24.58
2022-11-21T09:25:48.654Z,11.82
2022-11-21T09:26:52.401Z,17.30
2022-11-21T09:28:03.886Z,22.08
2022-11-21T09:29:11.105Z,13.68
2022-11-21T09:30:21.869Z,17.92
2022-11-21T09:31:26.903Z,10.65
2022-11-21T09:32:31.411Z,18.20
2022-11-21T09:33:36.093Z,19.58
2022-11-21T09:34:39.906Z,16.98
2022-11-21T09:35:44.162Z,24.55
2022-11-21T09:36:48.090Z,13.98
2022-11-21T09:37:52.100Z,19.45
2022-11-21T09:38:56.557Z,21.20
2022-11-21T09:40:01.375Z,16.20
2022-11-21T09:41:48.814Z,22.90
2022-11-21T09:43:23.155Z,20.98
2022-11-21T09:44:44.974Z,19.98
2022-11-21T09:45:57.613Z,16.17
2022-11-21T09:47:33.726Z,19.15
2022-11-21T09:49:15.591Z,19.23
2022-11-21T09:50:31.700Z,22.80
2022-11-21T09:51:41.731Z,20.10
2022-11-21T09:52:54.481Z,21.85
2022-11-21T09:54:33.807Z,30.13
2022-11-21T09:55:47.292Z,16.98
2022-11-21T09:56:53.644Z,20.90
2022-11-21T09:58:02.492Z,20.23
2022-11-21T09:59:28.653Z,19.08
2022-11-21T10:00:34.316Z,18.33
2022-11-21T10:01:39.065Z,18.60
2022-11-21T10:02:42.687Z,18.40
2022-11-21T10:05:56.203Z,17.35
2022-11-21T10:07:18.472Z,21.10
2022-11-21T10:08:46.330Z,20.75
2022-11-21T10:10:32.029Z,16.33
2022-11-21T10:12:25.233Z,15.55
2022-11-21T10:13:56.980Z,16.85
2022-11-21T10:15:38.207Z,17.98
2022-11-21T10:17:13.789Z,12.63
2022-11-21T10:18:32.757Z,16.20
2022-11-21T10:19:49.821Z,24.33
2022-11-21T10:21:10.120Z,20.83
2022-11-21T10:22:29.068Z,13.63
2022-11-21T10:24:20.847Z,24.13
2022-11-21T10:25:38.927Z,26.67
2022-11-21T10:27:33.536Z,23.73
2022-11-21T10:28:52.488Z,16.52
2022-11-21T10:30:21.675Z,20.27
2022-11-21T10:31:31.781Z,16.42
2022-11-21T10:33:00.721Z,19.88
2022-11-21T10:34:25.987Z,13.02
2022-11-21T10:35:49.220Z,24.00
2022-11-21T10:37:15.819Z,15.13
2022-11-21T10:38:31.157Z,23.77
2022-11-21T10:39:54.611Z,25.05
2022-11-21T10:41:24.995Z,15.13
2022-11-21T12:03:58.668Z,31.98
2022-11-21T12:05:24.073Z,16.58
2022-11-21T12:08:43.159Z,25.73
2022-11-21T12:10:35.628Z,15.57
2022-11-21T12:12:08.598Z,16.55
2022-11-21T12:13:19.460Z,14.40
2022-11-21T12:15:27.819Z,17.40
2022-11-21T12:16:32.120Z,14.00
2022-11-21T12:17:59.074Z,23.17
2022-11-21T12:19:16.213Z,15.27
2022-11-21T12:20:51.108Z,21.83
2022-11-21T12:21:55.134Z,24.45
2022-11-21T12:22:59.185Z,20.48
2022-11-21T12:24:06.070Z,22.38
2022-11-21T12:25:14.289Z,20.70
2022-11-21T12:26:20.825Z,22.33
2022-11-21T12:27:31.266Z,17.35
2022-11-21T12:28:47.223Z,17.73
2022-11-21T12:30:34.572Z,23.45
2022-11-21T12:32:18.369Z,21.38
2022-11-21T12:33:24.572Z,19.60
2022-11-21T12:35:01.776Z,15.93
2022-11-21T12:36:32.449Z,25.55
2022-11-21T12:38:34.214Z,20.77
2022-11-21T12:40:35.279Z,17.85
2022-11-21T12:42:35.576Z,15.48
2022-11-21T12:44:10.647Z,17.80
2022-11-21T12:45:32.439Z,19.73
2022-11-21T12:47:54.051Z,18.58
2022-11-21T12:49:31.877Z,24.30
2022-11-21T12:51:41.736Z,16.40
2022-11-21T12:53:27.434Z,21.60
2022-11-21T12:55:17.116Z,23.25
2022-11-21T12:57:16.919Z,21.17
2022-11-21T12:58:49.462Z,17.67
2022-11-21T13:00:13.607Z,17.80
2022-11-21T13:01:54.712Z,16.73
2022-11-21T13:03:39.393Z,21.20
2022-11-21T13:04:49.981Z,19.13
2022-11-21T13:05:59.307Z,23.70
2022-11-21T13:07:08.799Z,19.95
2022-11-21T13:08:24.679Z,25.65
2022-11-21T13:09:38.587Z,19.33
2022-11-21T13:11:29.245Z,18.17
2022-11-21T13:12:46.577Z,18.90
2022-11-21T13:14:07.445Z,21.10
2022-11-21T13:15:34.126Z,14.88
2022-11-21T13:16:54.725Z,19.73
2022-11-21T13:18:31.145Z,21.38
2022-11-21T13:20:36.072Z,22.25
2022-11-21T13:21:53.851Z,13.85
2022-11-21T13:23:41.135Z,16.55
2022-11-21T13:24:48.153Z,14.82
2022-11-21T13:25:52.777Z,15.82
2022-11-21T13:26:57.253Z,30.60
2022-11-21T13:28:20.974Z,17.85
2022-11-21T13:29:25.057Z,18.13
2022-11-21T13:30:28.706Z,10.88
2022-11-21T13:31:34.400Z,17.45
2022-11-21T13:32:50.665Z,13.43
2022-11-21T13:33:54.580Z,17.63
2022-11-21T13:35:00.895Z,14.55
2022-11-21T13:36:30.430Z,27.05
2022-11-21T13:37:51.300Z,13.75
2022-11-21T13:38:55.001Z,26.63
2022-11-21T13:40:30.661Z,17.73
2022-11-21T13:42:00.130Z,27.45
2022-11-21T13:44:42.803Z,16.92
2022-11-21T13:45:58.942Z,23.23
2022-11-21T13:47:52.456Z,17.67
2022-11-21T13:49:20.008Z,14.77
2022-11-21T13:50:37.750Z,15.50
2022-11-21T13:51:54.863Z,30.23
2022-11-21T13:53:27.683Z,16.65
2022-11-21T13:55:02.603Z,17.85
2022-11-21T13:56:25.398Z,19.52
2022-11-21T13:58:00.607Z,20.58
2022-11-21T13:59:17.801Z,18.25
2022-11-21T14:01:02.812Z,12.73
2022-11-21T14:02:39.435Z,18.70
2022-11-21T14:04:26.229Z,12.98
2022-11-21T14:06:11.452Z,28.95
2022-11-21T14:07:34.031Z,18.58
2022-11-21T14:08:38.128Z,18.83
2022-11-21T14:09:57.832Z,23.27
2022-11-21T14:11:22.529Z,16.27
2022-11-21T14:12:44.045Z,20.55
2022-11-21T14:13:50.603Z,16.77
2022-11-21T14:15:34.358Z,16.80
2022-11-21T14:16:49.145Z,22.10
2022-11-21T14:18:01.262Z,17.52
2022-11-21T14:19:08.054Z,16.75
2022-11-21T14:20:33.423Z,16.58
2022-11-21T14:21:40.982Z,23.73
2022-11-21T14:23:13.363Z,19.08
2022-11-21T14:24:29.261Z,16.92
2022-11-21T14:25:50.391Z,18.92
2022-11-21T14:26:55.883Z,16.83
2022-11-21T14:28:00.748Z,20.80
2022-11-21T14:29:40.040Z,15.90
2022-11-21T14:30:45.264Z,19.10
2022-11-21T14:31:50.853Z,15.93
2022-11-21T14:32:55.091Z,15.15
2022-11-21T14:33:59.105Z,17.65
2022-11-21T14:35:23.128Z,15.25
2022-11-21T14:36:32.097Z,32.67
2022-11-21T14:37:42.393Z,18.42
2022-11-21T14:39:13.842Z,11.80
2022-11-21T14:40:25.353Z,26.27
2022-11-21T14:41:32.237Z,14.63
2022-11-21T14:42:37.649Z,15.70
2022-11-21T14:43:41.686Z,12.10
2022-11-21T14:44:48.625Z,16.73
2022-11-21T14:45:53.238Z,19.42
2022-11-21T14:47:25.752Z,30.38
2022-11-21T14:48:30.949Z,21.13
2022-11-21T14:49:34.763Z,20.60
2022-11-21T14:50:43.233Z,13.73
2022-11-21T14:52:25.147Z,15.02
2022-11-21T14:53:33.751Z,15.70
2022-11-21T14:56:29.053Z,21.83
2022-11-21T14:57:43.569Z,16.17
2022-11-21T14:58:48.137Z,15.38
2022-11-21T14:59:52.941Z,26.50
2022-11-21T15:01:23.813Z,14.75
2022-11-21T15:02:33.356Z,15.32
2022-11-21T15:03:36.986Z,11.68
2022-11-21T15:04:51.777Z,16.83
2022-11-21T15:06:08.188Z,18.25
2022-11-21T15:07:47.920Z,22.70
2022-11-21T15:10:30.377Z,19.13
2022-11-21T15:11:54.369Z,21.92
2022-11-21T15:13:12.774Z,16.10
2022-11-21T15:14:35.989Z,15.60
2022-11-21T15:15:49.564Z,19.45
2022-11-21T15:16:56.759Z,14.98
2022-11-21T15:18:27.091Z,18.60
2022-11-21T15:19:33.246Z,17.13
2022-11-21T15:20:39.256Z,14.98
2022-11-21T15:21:47.714Z,18.88
2022-11-21T15:23:02.715Z,21.10
2022-11-21T15:24:44.014Z,20.50
2022-11-21T15:25:48.324Z,16.02
2022-11-21T15:26:51.958Z,18.48
2022-11-21T15:28:02.892Z,15.55
2022-11-21T15:29:23.926Z,12.07
2022-11-21T15:30:38.378Z,24.25
2022-11-21T15:31:44.034Z,8.48
2022-11-21T15:33:14.371Z,14.73
2022-11-21T15:34:36.856Z,19.23
2022-11-21T15:35:57.985Z,17.27
2022-11-21T15:37:16.631Z,17.85
2022-11-21T15:38:29.679Z,20.67
2022-11-21T15:39:35.928Z,15.32
2022-11-21T15:40:44.283Z,30.23
2022-11-21T15:41:52.575Z,14.82
2022-11-21T15:42:57.320Z,22.73
2022-11-21T15:44:01.326Z,15.50
2022-11-21T15:45:20.334Z,20.75
2022-11-21T15:46:31.595Z,23.45
2022-11-21T15:47:36.057Z,19.27
2022-11-21T15:48:39.817Z,20.15
2022-11-21T15:49:47.994Z,21.10
2022-11-21T15:50:57.585Z,14.30
2022-11-21T15:52:08.893Z,20.60
2022-11-21T15:53:21.146Z,22.23
2022-11-21T15:54:25.057Z,18.42
2022-11-21T15:55:33.938Z,19.00
2022-11-21T15:56:38.590Z,11.30
2022-11-21T15:57:43.492Z,17.20
2022-11-21T15:58:49.942Z,16.27
2022-11-21T16:00:17.603Z,18.13
2022-11-21T16:01:30.029Z,19.48
2022-11-21T16:02:33.884Z,21.60
2022-11-21T16:03:37.953Z,15.60
2022-11-21T16:04:42.736Z,18.13
2022-11-21T16:05:46.286Z,18.88
2022-11-21T16:06:50.236Z,19.55
2022-11-21T16:07:53.658Z,17.08
2022-11-21T16:09:03.130Z,13.52
2022-11-21T16:10:17.229Z,13.50
2022-11-21T16:11:32.399Z,14.02
2022-11-21T16:12:37.792Z,16.90
2022-11-21T16:13:59.211Z,12.25
2022-11-21T16:15:03.095Z,18.83
2022-11-21T16:16:12.551Z,15.38
2022-11-21T16:17:17.353Z,24.50
2022-11-21T16:18:21.749Z,16.85
2022-11-21T16:19:29.277Z,17.20
2022-11-21T16:20:35.792Z,18.33
2022-11-21T16:21:44.841Z,15.77
2022-11-21T16:22:49.985Z,17.33
2022-11-21T16:23:55.541Z,15.48
2022-11-21T16:25:00.945Z,20.80
2022-11-21T16:26:11.509Z,22.00
2022-11-21T16:27:15.308Z,21.45
2022-11-21T16:28:20.480Z,24.23
2022-11-21T16:29:24.658Z,18.08
2022-11-21T16:30:28.495Z,19.08
2022-11-21T16:31:33.687Z,24.02
2022-11-21T16:32:38.674Z,14.30
2022-11-21T16:33:43.156Z,22.70
2022-11-21T16:34:47.106Z,12.48
2022-11-21T16:35:54.939Z,18.00
2022-11-21T16:37:04.237Z,22.55